sensor_id;sensor_type;location;lat;lon;timestamp;P1;durP1;ratioP1;P2;durP2;ratioP2
55082;SDS011;40978;52.850;6.506;2023-04-24T00:00:11;1.25;;;0.35;;
55082;SDS011;40978;52.850;6.506;2023-04-24T00:02:40;0.45;;;0.40;;
55082;SDS011;40978;52.850;6.506;2023-04-24T00:05:07;1.35;;;0.50;;
55082;SDS011;40978;52.850;6.506;2023-04-24T00:07:33;2.58;;;0.57;;
55082;SDS011;40978;52.850;6.506;2023-04-24T00:10:00;0.50;;;0.50;;
55082;SDS011;40978;52.850;6.506;2023-04-24T00:12:25;1.95;;;0.70;;
55082;SDS011;40978;52.850;6.506;2023-04-24T00:14:52;1.67;;;0.90;;
55082;SDS011;40978;52.850;6.506;2023-04-24T00:17:18;0.98;;;0.80;;
55082;SDS011;40978;52.850;6.506;2023-04-24T00:19:49;1.10;;;0.95;;
55082;SDS011;40978;52.850;6.506;2023-04-24T00:22:26;1.45;;;1.17;;
55082;SDS011;40978;52.850;6.506;2023-04-24T00:24:53;2.60;;;1.00;;
55082;SDS011;40978;52.850;6.506;2023-04-24T00:27:19;1.50;;;1.20;;
55082;SDS011;40978;52.850;6.506;2023-04-24T00:29:45;1.50;;;1.30;;
55082;SDS011;40978;52.850;6.506;2023-04-24T00:32:11;1.70;;;1.35;;
55082;SDS011;40978;52.850;6.506;2023-04-24T00:34:36;1.52;;;1.42;;
55082;SDS011;40978;52.850;6.506;2023-04-24T00:37:02;2.03;;;1.77;;
55082;SDS011;40978;52.850;6.506;2023-04-24T00:39:28;2.15;;;1.95;;
55082;SDS011;40978;52.850;6.506;2023-04-24T00:41:54;1.70;;;1.60;;
55082;SDS011;40978;52.850;6.506;2023-04-24T00:44:20;1.95;;;1.80;;
55082;SDS011;40978;52.850;6.506;2023-04-24T00:46:46;1.90;;;1.80;;
55082;SDS011;40978;52.850;6.506;2023-04-24T00:49:17;2.40;;;2.20;;
55082;SDS011;40978;52.850;6.506;2023-04-24T00:51:44;1.95;;;1.70;;
55082;SDS011;40978;52.850;6.506;2023-04-24T00:54:11;2.03;;;1.83;;
55082;SDS011;40978;52.850;6.506;2023-04-24T00:56:37;2.28;;;2.08;;
55082;SDS011;40978;52.850;6.506;2023-04-24T00:59:03;2.45;;;2.25;;
55082;SDS011;40978;52.850;6.506;2023-04-24T01:01:29;2.67;;;2.47;;
55082;SDS011;40978;52.850;6.506;2023-04-24T01:03:55;2.38;;;2.17;;
55082;SDS011;40978;52.850;6.506;2023-04-24T01:06:22;2.67;;;2.47;;
55082;SDS011;40978;52.850;6.506;2023-04-24T01:08:52;3.35;;;2.65;;
55082;SDS011;40978;52.850;6.506;2023-04-24T01:11:19;3.53;;;3.22;;
55082;SDS011;40978;52.850;6.506;2023-04-24T01:13:46;4.00;;;3.70;;
55082;SDS011;40978;52.850;6.506;2023-04-24T01:16:13;4.70;;;4.20;;
55082;SDS011;40978;52.850;6.506;2023-04-24T01:18:40;4.78;;;4.38;;
55082;SDS011;40978;52.850;6.506;2023-04-24T01:21:06;5.45;;;4.97;;
55082;SDS011;40978;52.850;6.506;2023-04-24T01:23:34;6.03;;;5.43;;
55082;SDS011;40978;52.850;6.506;2023-04-24T01:26:00;5.95;;;5.45;;
55082;SDS011;40978;52.850;6.506;2023-04-24T01:28:26;6.22;;;5.72;;
55082;SDS011;40978;52.850;6.506;2023-04-24T01:30:52;6.63;;;6.10;;
55082;SDS011;40978;52.850;6.506;2023-04-24T01:33:18;6.68;;;6.07;;
55082;SDS011;40978;52.850;6.506;2023-04-24T01:35:46;6.10;;;5.60;;
55082;SDS011;40978;52.850;6.506;2023-04-24T01:38:13;6.85;;;5.97;;
55082;SDS011;40978;52.850;6.506;2023-04-24T01:40:39;7.05;;;6.35;;
55082;SDS011;40978;52.850;6.506;2023-04-24T01:43:05;6.53;;;5.80;;
55082;SDS011;40978;52.850;6.506;2023-04-24T01:45:30;5.85;;;5.35;;
55082;SDS011;40978;52.850;6.506;2023-04-24T01:47:56;6.10;;;5.55;;
55082;SDS011;40978;52.850;6.506;2023-04-24T01:50:22;6.05;;;5.35;;
55082;SDS011;40978;52.850;6.506;2023-04-24T01:52:48;5.60;;;5.18;;
55082;SDS011;40978;52.850;6.506;2023-04-24T01:55:14;5.63;;;5.22;;
55082;SDS011;40978;52.850;6.506;2023-04-24T01:57:39;5.13;;;4.72;;
55082;SDS011;40978;52.850;6.506;2023-04-24T02:00:05;5.45;;;5.05;;
55082;SDS011;40978;52.850;6.506;2023-04-24T02:02:32;5.50;;;5.10;;
55082;SDS011;40978;52.850;6.506;2023-04-24T02:04:58;5.50;;;5.10;;
55082;SDS011;40978;52.850;6.506;2023-04-24T02:07:24;6.57;;;6.05;;
55082;SDS011;40978;52.850;6.506;2023-04-24T02:09:50;5.88;;;5.38;;
55082;SDS011;40978;52.850;6.506;2023-04-24T02:12:16;6.03;;;5.63;;
55082;SDS011;40978;52.850;6.506;2023-04-24T02:14:43;5.55;;;5.15;;
55082;SDS011;40978;52.850;6.506;2023-04-24T02:17:09;5.63;;;5.13;;
55082;SDS011;40978;52.850;6.506;2023-04-24T02:19:40;5.47;;;5.07;;
55082;SDS011;40978;52.850;6.506;2023-04-24T02:22:06;4.80;;;4.40;;
55082;SDS011;40978;52.850;6.506;2023-04-24T02:24:31;6.25;;;4.90;;
55082;SDS011;40978;52.850;6.506;2023-04-24T02:26:57;5.22;;;4.18;;
55082;SDS011;40978;52.850;6.506;2023-04-24T02:29:23;5.30;;;4.80;;
55082;SDS011;40978;52.850;6.506;2023-04-24T02:31:49;4.68;;;4.38;;
55082;SDS011;40978;52.850;6.506;2023-04-24T02:34:14;4.00;;;3.70;;
55082;SDS011;40978;52.850;6.506;2023-04-24T02:36:41;4.82;;;4.32;;
55082;SDS011;40978;52.850;6.506;2023-04-24T02:39:07;4.25;;;3.85;;
55082;SDS011;40978;52.850;6.506;2023-04-24T02:41:33;4.38;;;3.97;;
55082;SDS011;40978;52.850;6.506;2023-04-24T02:43:59;3.67;;;3.38;;
55082;SDS011;40978;52.850;6.506;2023-04-24T02:46:25;3.90;;;3.60;;
55082;SDS011;40978;52.850;6.506;2023-04-24T02:48:51;3.95;;;3.38;;
55082;SDS011;40978;52.850;6.506;2023-04-24T02:51:17;3.22;;;2.92;;
55082;SDS011;40978;52.850;6.506;2023-04-24T02:53:42;3.50;;;3.20;;
55082;SDS011;40978;52.850;6.506;2023-04-24T02:56:08;2.58;;;2.38;;
55082;SDS011;40978;52.850;6.506;2023-04-24T02:58:37;5.10;;;2.38;;
55082;SDS011;40978;52.850;6.506;2023-04-24T03:01:03;2.78;;;2.20;;
55082;SDS011;40978;52.850;6.506;2023-04-24T03:03:29;3.47;;;2.10;;
55082;SDS011;40978;52.850;6.506;2023-04-24T03:05:55;3.42;;;2.50;;
55082;SDS011;40978;52.850;6.506;2023-04-24T03:08:22;4.80;;;2.28;;
55082;SDS011;40978;52.850;6.506;2023-04-24T03:10:48;3.95;;;3.45;;
55082;SDS011;40978;52.850;6.506;2023-04-24T03:13:13;3.47;;;3.17;;
55082;SDS011;40978;52.850;6.506;2023-04-24T03:15:40;3.47;;;3.17;;
55082;SDS011;40978;52.850;6.506;2023-04-24T03:18:06;4.20;;;3.53;;
55082;SDS011;40978;52.850;6.506;2023-04-24T03:20:32;4.60;;;3.88;;
55082;SDS011;40978;52.850;6.506;2023-04-24T03:22:57;4.50;;;4.20;;
55082;SDS011;40978;52.850;6.506;2023-04-24T03:25:23;4.85;;;4.28;;
55082;SDS011;40978;52.850;6.506;2023-04-24T03:27:49;5.00;;;4.60;;
55082;SDS011;40978;52.850;6.506;2023-04-24T03:30:15;5.28;;;4.78;;
55082;SDS011;40978;52.850;6.506;2023-04-24T03:32:40;5.57;;;5.18;;
55082;SDS011;40978;52.850;6.506;2023-04-24T03:35:06;5.25;;;4.80;;
55082;SDS011;40978;52.850;6.506;2023-04-24T03:37:33;5.10;;;4.70;;
55082;SDS011;40978;52.850;6.506;2023-04-24T03:39:59;5.70;;;5.03;;
55082;SDS011;40978;52.850;6.506;2023-04-24T03:42:25;5.45;;;4.75;;
55082;SDS011;40978;52.850;6.506;2023-04-24T03:44:51;5.80;;;4.78;;
55082;SDS011;40978;52.850;6.506;2023-04-24T03:47:17;4.78;;;4.38;;
55082;SDS011;40978;52.850;6.506;2023-04-24T03:49:42;4.88;;;4.47;;
55082;SDS011;40978;52.850;6.506;2023-04-24T03:52:08;4.28;;;3.88;;
55082;SDS011;40978;52.850;6.506;2023-04-24T03:54:34;4.13;;;3.78;;
55082;SDS011;40978;52.850;6.506;2023-04-24T03:57:00;3.85;;;2.80;;
55082;SDS011;40978;52.850;6.506;2023-04-24T03:59:26;2.55;;;2.30;;
55082;SDS011;40978;52.850;6.506;2023-04-24T04:01:52;2.22;;;2.03;;
55082;SDS011;40978;52.850;6.506;2023-04-24T04:04:17;2.08;;;1.60;;
55082;SDS011;40978;52.850;6.506;2023-04-24T04:06:43;1.33;;;1.23;;
55082;SDS011;40978;52.850;6.506;2023-04-24T04:09:09;2.38;;;1.10;;
55082;SDS011;40978;52.850;6.506;2023-04-24T04:11:35;1.33;;;0.73;;
55082;SDS011;40978;52.850;6.506;2023-04-24T04:14:01;2.28;;;0.75;;
55082;SDS011;40978;52.850;6.506;2023-04-24T04:16:27;1.23;;;0.70;;
55082;SDS011;40978;52.850;6.506;2023-04-24T04:18:53;0.68;;;0.40;;
55082;SDS011;40978;52.850;6.506;2023-04-24T04:21:18;1.30;;;0.60;;
55082;SDS011;40978;52.850;6.506;2023-04-24T04:23:44;0.30;;;0.30;;
55082;SDS011;40978;52.850;6.506;2023-04-24T04:26:10;0.57;;;0.30;;
55082;SDS011;40978;52.850;6.506;2023-04-24T04:28:37;0.95;;;0.30;;
55082;SDS011;40978;52.850;6.506;2023-04-24T04:31:04;1.33;;;0.30;;
55082;SDS011;40978;52.850;6.506;2023-04-24T04:33:30;0.95;;;0.30;;
55082;SDS011;40978;52.850;6.506;2023-04-24T04:35:56;0.55;;;0.30;;
55082;SDS011;40978;52.850;6.506;2023-04-24T04:38:23;0.70;;;0.50;;
55082;SDS011;40978;52.850;6.506;2023-04-24T04:40:51;0.63;;;0.45;;
55082;SDS011;40978;52.850;6.506;2023-04-24T04:43:17;1.45;;;0.70;;
55082;SDS011;40978;52.850;6.506;2023-04-24T04:45:43;0.70;;;0.70;;
55082;SDS011;40978;52.850;6.506;2023-04-24T04:48:09;0.90;;;0.88;;
55082;SDS011;40978;52.850;6.506;2023-04-24T04:50:37;1.02;;;1.00;;
55082;SDS011;40978;52.850;6.506;2023-04-24T04:53:03;1.42;;;1.15;;
55082;SDS011;40978;52.850;6.506;2023-04-24T04:55:30;1.85;;;1.60;;
55082;SDS011;40978;52.850;6.506;2023-04-24T04:57:56;2.13;;;1.40;;
55082;SDS011;40978;52.850;6.506;2023-04-24T05:00:22;2.10;;;1.80;;
55082;SDS011;40978;52.850;6.506;2023-04-24T05:02:50;1.77;;;1.40;;
55082;SDS011;40978;52.850;6.506;2023-04-24T05:05:16;2.83;;;1.40;;
55082;SDS011;40978;52.850;6.506;2023-04-24T05:07:43;2.92;;;2.00;;
55082;SDS011;40978;52.850;6.506;2023-04-24T05:10:09;1.90;;;1.63;;
55082;SDS011;40978;52.850;6.506;2023-04-24T05:12:35;2.17;;;1.73;;
55082;SDS011;40978;52.850;6.506;2023-04-24T05:15:01;1.77;;;1.60;;
55082;SDS011;40978;52.850;6.506;2023-04-24T05:17:28;3.08;;;1.83;;
55082;SDS011;40978;52.850;6.506;2023-04-24T05:19:53;1.70;;;1.40;;
55082;SDS011;40978;52.850;6.506;2023-04-24T05:22:19;3.15;;;1.80;;
55082;SDS011;40978;52.850;6.506;2023-04-24T05:24:46;2.65;;;2.00;;
55082;SDS011;40978;52.850;6.506;2023-04-24T05:27:12;2.05;;;1.85;;
55082;SDS011;40978;52.850;6.506;2023-04-24T05:29:38;2.22;;;1.98;;
55082;SDS011;40978;52.850;6.506;2023-04-24T05:32:03;2.08;;;1.88;;
55082;SDS011;40978;52.850;6.506;2023-04-24T05:34:29;3.25;;;2.20;;
55082;SDS011;40978;52.850;6.506;2023-04-24T05:36:55;2.83;;;2.13;;
55082;SDS011;40978;52.850;6.506;2023-04-24T05:39:21;2.78;;;2.15;;
55082;SDS011;40978;52.850;6.506;2023-04-24T05:41:46;4.00;;;2.50;;
55082;SDS011;40978;52.850;6.506;2023-04-24T05:44:12;2.53;;;2.30;;
55082;SDS011;40978;52.850;6.506;2023-04-24T05:46:38;6.35;;;2.55;;
55082;SDS011;40978;52.850;6.506;2023-04-24T05:49:03;2.35;;;1.63;;
55082;SDS011;40978;52.850;6.506;2023-04-24T05:51:29;14.05;;;1.50;;
55082;SDS011;40978;52.850;6.506;2023-04-24T05:53:56;1.67;;;1.25;;
55082;SDS011;40978;52.850;6.506;2023-04-24T05:56:22;1.88;;;1.63;;
55082;SDS011;40978;52.850;6.506;2023-04-24T05:58:48;2.03;;;1.70;;
55082;SDS011;40978;52.850;6.506;2023-04-24T06:01:14;1.95;;;1.50;;
55082;SDS011;40978;52.850;6.506;2023-04-24T06:03:40;1.65;;;1.55;;
55082;SDS011;40978;52.850;6.506;2023-04-24T06:06:07;2.67;;;1.65;;
55082;SDS011;40978;52.850;6.506;2023-04-24T06:08:33;2.95;;;1.75;;
55082;SDS011;40978;52.850;6.506;2023-04-24T06:11:00;2.70;;;1.67;;
55082;SDS011;40978;52.850;6.506;2023-04-24T06:13:26;2.88;;;1.75;;
55082;SDS011;40978;52.850;6.506;2023-04-24T06:15:52;2.28;;;1.70;;
55082;SDS011;40978;52.850;6.506;2023-04-24T06:18:18;2.45;;;1.70;;
55082;SDS011;40978;52.850;6.506;2023-04-24T06:20:44;2.78;;;2.38;;
55082;SDS011;40978;52.850;6.506;2023-04-24T06:23:10;3.28;;;2.40;;
55082;SDS011;40978;52.850;6.506;2023-04-24T06:25:36;2.08;;;1.83;;
55082;SDS011;40978;52.850;6.506;2023-04-24T06:28:02;2.15;;;1.95;;
55082;SDS011;40978;52.850;6.506;2023-04-24T06:30:28;3.17;;;2.10;;
55082;SDS011;40978;52.850;6.506;2023-04-24T06:32:54;2.85;;;2.22;;
55082;SDS011;40978;52.850;6.506;2023-04-24T06:35:20;2.70;;;1.77;;
55082;SDS011;40978;52.850;6.506;2023-04-24T06:37:46;2.20;;;1.80;;
55082;SDS011;40978;52.850;6.506;2023-04-24T06:40:12;2.50;;;1.90;;
55082;SDS011;40978;52.850;6.506;2023-04-24T06:42:38;2.05;;;1.80;;
55082;SDS011;40978;52.850;6.506;2023-04-24T06:45:04;3.60;;;1.88;;
55082;SDS011;40978;52.850;6.506;2023-04-24T06:47:30;3.88;;;2.50;;
55082;SDS011;40978;52.850;6.506;2023-04-24T06:49:56;5.20;;;2.60;;
55082;SDS011;40978;52.850;6.506;2023-04-24T06:52:22;6.05;;;3.97;;
55082;SDS011;40978;52.850;6.506;2023-04-24T06:54:48;4.65;;;4.07;;
55082;SDS011;40978;52.850;6.506;2023-04-24T06:57:14;6.38;;;4.95;;
55082;SDS011;40978;52.850;6.506;2023-04-24T06:59:41;6.93;;;5.10;;
55082;SDS011;40978;52.850;6.506;2023-04-24T07:02:07;6.57;;;5.03;;
55082;SDS011;40978;52.850;6.506;2023-04-24T07:04:33;5.95;;;5.35;;
55082;SDS011;40978;52.850;6.506;2023-04-24T07:06:59;9.35;;;5.82;;
55082;SDS011;40978;52.850;6.506;2023-04-24T07:09:26;9.23;;;6.25;;
55082;SDS011;40978;52.850;6.506;2023-04-24T07:11:52;6.22;;;4.78;;
55082;SDS011;40978;52.850;6.506;2023-04-24T07:14:18;7.65;;;4.47;;
55082;SDS011;40978;52.850;6.506;2023-04-24T07:16:48;6.43;;;3.83;;
55082;SDS011;40978;52.850;6.506;2023-04-24T07:19:14;5.60;;;3.60;;
55082;SDS011;40978;52.850;6.506;2023-04-24T07:21:40;9.95;;;3.83;;
55082;SDS011;40978;52.850;6.506;2023-04-24T07:24:06;5.65;;;4.25;;
55082;SDS011;40978;52.850;6.506;2023-04-24T07:26:35;10.00;;;4.28;;
55082;SDS011;40978;52.850;6.506;2023-04-24T07:29:02;7.35;;;4.20;;
55082;SDS011;40978;52.850;6.506;2023-04-24T07:31:28;5.90;;;3.92;;
55082;SDS011;40978;52.850;6.506;2023-04-24T07:33:54;7.00;;;4.07;;
55082;SDS011;40978;52.850;6.506;2023-04-24T07:36:22;6.47;;;4.40;;
55082;SDS011;40978;52.850;6.506;2023-04-24T07:38:49;7.07;;;3.58;;
55082;SDS011;40978;52.850;6.506;2023-04-24T07:41:15;4.72;;;3.53;;
55082;SDS011;40978;52.850;6.506;2023-04-24T07:43:41;6.68;;;2.70;;
55082;SDS011;40978;52.850;6.506;2023-04-24T07:46:07;7.45;;;2.88;;
55082;SDS011;40978;52.850;6.506;2023-04-24T07:48:33;3.08;;;2.00;;
55082;SDS011;40978;52.850;6.506;2023-04-24T07:50:59;6.68;;;2.70;;
55082;SDS011;40978;52.850;6.506;2023-04-24T07:53:25;5.35;;;2.30;;
55082;SDS011;40978;52.850;6.506;2023-04-24T07:55:50;5.20;;;2.53;;
55082;SDS011;40978;52.850;6.506;2023-04-24T07:58:16;4.50;;;2.65;;
55082;SDS011;40978;52.850;6.506;2023-04-24T08:00:42;3.97;;;2.28;;
55082;SDS011;40978;52.850;6.506;2023-04-24T08:03:08;7.45;;;2.42;;
55082;SDS011;40978;52.850;6.506;2023-04-24T08:05:33;6.45;;;2.58;;
55082;SDS011;40978;52.850;6.506;2023-04-24T08:07:59;5.95;;;2.22;;
55082;SDS011;40978;52.850;6.506;2023-04-24T08:10:25;5.28;;;2.38;;
55082;SDS011;40978;52.850;6.506;2023-04-24T08:12:51;5.95;;;2.10;;
55082;SDS011;40978;52.850;6.506;2023-04-24T08:15:17;6.07;;;3.40;;
55082;SDS011;40978;52.850;6.506;2023-04-24T08:17:43;8.18;;;3.85;;
55082;SDS011;40978;52.850;6.506;2023-04-24T08:20:09;10.57;;;4.47;;
55082;SDS011;40978;52.850;6.506;2023-04-24T08:22:39;11.50;;;5.90;;
55082;SDS011;40978;52.850;6.506;2023-04-24T08:25:06;12.55;;;7.05;;
55082;SDS011;40978;52.850;6.506;2023-04-24T08:27:32;14.05;;;7.45;;
55082;SDS011;40978;52.850;6.506;2023-04-24T08:29:58;13.40;;;8.77;;
55082;SDS011;40978;52.850;6.506;2023-04-24T08:32:25;15.75;;;10.38;;
55082;SDS011;40978;52.850;6.506;2023-04-24T08:34:54;16.60;;;9.23;;
55082;SDS011;40978;52.850;6.506;2023-04-24T08:37:21;13.63;;;9.95;;
55082;SDS011;40978;52.850;6.506;2023-04-24T08:39:48;12.30;;;9.20;;
55082;SDS011;40978;52.850;6.506;2023-04-24T08:42:14;14.10;;;9.50;;
55082;SDS011;40978;52.850;6.506;2023-04-24T08:44:42;13.40;;;10.13;;
55082;SDS011;40978;52.850;6.506;2023-04-24T08:47:09;19.52;;;10.90;;
55082;SDS011;40978;52.850;6.506;2023-04-24T08:49:36;16.77;;;10.55;;
55082;SDS011;40978;52.850;6.506;2023-04-24T08:52:02;18.92;;;11.25;;
55082;SDS011;40978;52.850;6.506;2023-04-24T08:54:29;15.65;;;10.35;;
55082;SDS011;40978;52.850;6.506;2023-04-24T08:57:00;21.38;;;12.63;;
55082;SDS011;40978;52.850;6.506;2023-04-24T08:59:28;20.15;;;12.75;;
55082;SDS011;40978;52.850;6.506;2023-04-24T09:01:55;21.55;;;14.48;;
55082;SDS011;40978;52.850;6.506;2023-04-24T09:04:22;25.92;;;15.02;;
55082;SDS011;40978;52.850;6.506;2023-04-24T09:06:49;24.10;;;16.52;;
55082;SDS011;40978;52.850;6.506;2023-04-24T09:09:23;31.25;;;17.27;;
55082;SDS011;40978;52.850;6.506;2023-04-24T09:11:50;22.88;;;16.45;;
55082;SDS011;40978;52.850;6.506;2023-04-24T09:14:18;26.67;;;17.17;;
55082;SDS011;40978;52.850;6.506;2023-04-24T09:16:45;18.77;;;15.38;;
55082;SDS011;40978;52.850;6.506;2023-04-24T09:19:11;19.73;;;15.43;;
55082;SDS011;40978;52.850;6.506;2023-04-24T09:21:37;20.90;;;14.80;;
55082;SDS011;40978;52.850;6.506;2023-04-24T09:24:07;20.35;;;14.23;;
55082;SDS011;40978;52.850;6.506;2023-04-24T09:26:39;22.95;;;13.45;;
55082;SDS011;40978;52.850;6.506;2023-04-24T09:29:05;17.80;;;12.23;;
55082;SDS011;40978;52.850;6.506;2023-04-24T09:31:31;18.90;;;13.10;;
55082;SDS011;40978;52.850;6.506;2023-04-24T09:36:29;19.65;;;14.15;;
55082;SDS011;40978;52.850;6.506;2023-04-24T09:39:06;15.93;;;10.75;;
55082;SDS011;40978;52.850;6.506;2023-04-24T09:41:33;15.25;;;10.77;;
55082;SDS011;40978;52.850;6.506;2023-04-24T09:44:12;15.25;;;9.95;;
55082;SDS011;40978;52.850;6.506;2023-04-24T09:46:39;14.88;;;9.88;;
55082;SDS011;40978;52.850;6.506;2023-04-24T09:49:09;12.48;;;9.50;;
55082;SDS011;40978;52.850;6.506;2023-04-24T09:51:40;13.50;;;10.35;;
55082;SDS011;40978;52.850;6.506;2023-04-24T09:54:16;20.58;;;9.90;;
55082;SDS011;40978;52.850;6.506;2023-04-24T09:56:47;17.27;;;9.77;;
55082;SDS011;40978;52.850;6.506;2023-04-24T09:59:15;13.95;;;7.43;;
55082;SDS011;40978;52.850;6.506;2023-04-24T10:01:43;16.60;;;8.18;;
55082;SDS011;40978;52.850;6.506;2023-04-24T10:04:20;12.73;;;7.65;;
55082;SDS011;40978;52.850;6.506;2023-04-24T10:06:48;17.25;;;8.73;;
55082;SDS011;40978;52.850;6.506;2023-04-24T10:09:19;16.48;;;8.07;;
55082;SDS011;40978;52.850;6.506;2023-04-24T10:11:49;13.10;;;7.85;;
55082;SDS011;40978;52.850;6.506;2023-04-24T10:14:23;12.40;;;6.95;;
55082;SDS011;40978;52.850;6.506;2023-04-24T10:16:52;17.23;;;6.70;;
55082;SDS011;40978;52.850;6.506;2023-04-24T10:19:19;16.95;;;6.07;;
55082;SDS011;40978;52.850;6.506;2023-04-24T10:21:45;14.63;;;6.22;;
55082;SDS011;40978;52.850;6.506;2023-04-24T10:24:14;9.38;;;4.63;;
55082;SDS011;40978;52.850;6.506;2023-04-24T10:26:41;12.15;;;5.10;;
55082;SDS011;40978;52.850;6.506;2023-04-24T10:29:07;12.88;;;4.75;;
55082;SDS011;40978;52.850;6.506;2023-04-24T10:31:35;11.90;;;4.85;;
55082;SDS011;40978;52.850;6.506;2023-04-24T10:34:03;14.32;;;4.85;;
55082;SDS011;40978;52.850;6.506;2023-04-24T10:36:30;13.15;;;5.00;;
55082;SDS011;40978;52.850;6.506;2023-04-24T10:38:57;17.95;;;4.95;;
55082;SDS011;40978;52.850;6.506;2023-04-24T10:41:26;9.30;;;3.40;;
55082;SDS011;40978;52.850;6.506;2023-04-24T10:44:03;12.55;;;3.55;;
55082;SDS011;40978;52.850;6.506;2023-04-24T10:46:34;18.83;;;4.30;;
55082;SDS011;40978;52.850;6.506;2023-04-24T10:49:10;12.73;;;3.30;;
55082;SDS011;40978;52.850;6.506;2023-04-24T10:51:46;8.40;;;3.15;;
55082;SDS011;40978;52.850;6.506;2023-04-24T10:59:43;13.40;;;3.10;;
55082;SDS011;40978;52.850;6.506;2023-04-24T11:02:10;13.23;;;3.42;;
55082;SDS011;40978;52.850;6.506;2023-04-24T11:04:35;11.38;;;3.13;;
55082;SDS011;40978;52.850;6.506;2023-04-24T11:07:04;13.68;;;3.70;;
55082;SDS011;40978;52.850;6.506;2023-04-24T11:09:31;13.07;;;3.67;;
55082;SDS011;40978;52.850;6.506;2023-04-24T11:12:08;11.20;;;2.65;;
55082;SDS011;40978;52.850;6.506;2023-04-24T11:15:21;9.00;;;2.38;;
55082;SDS011;40978;52.850;6.506;2023-04-24T11:20:05;8.43;;;2.55;;
55082;SDS011;40978;52.850;6.506;2023-04-24T11:25:00;8.95;;;2.40;;
55082;SDS011;40978;52.850;6.506;2023-04-24T11:27:30;9.25;;;2.83;;
55082;SDS011;40978;52.850;6.506;2023-04-24T11:32:29;12.60;;;2.47;;
55082;SDS011;40978;52.850;6.506;2023-04-24T11:35:02;11.05;;;2.92;;
55082;SDS011;40978;52.850;6.506;2023-04-24T11:37:39;9.38;;;2.30;;
55082;SDS011;40978;52.850;6.506;2023-04-24T11:40:07;12.43;;;2.45;;
55082;SDS011;40978;52.850;6.506;2023-04-24T11:42:36;8.15;;;1.77;;
55082;SDS011;40978;52.850;6.506;2023-04-24T11:45:07;12.75;;;2.67;;
55082;SDS011;40978;52.850;6.506;2023-04-24T11:47:34;10.77;;;2.30;;
55082;SDS011;40978;52.850;6.506;2023-04-24T11:50:00;6.97;;;1.77;;
55082;SDS011;40978;52.850;6.506;2023-04-24T11:52:27;6.63;;;1.95;;
55082;SDS011;40978;52.850;6.506;2023-04-24T11:54:53;8.85;;;1.67;;
55082;SDS011;40978;52.850;6.506;2023-04-24T11:57:19;7.97;;;1.77;;
55082;SDS011;40978;52.850;6.506;2023-04-24T11:59:46;5.53;;;1.30;;
55082;SDS011;40978;52.850;6.506;2023-04-24T12:02:25;5.22;;;1.70;;
55082;SDS011;40978;52.850;6.506;2023-04-24T12:04:55;6.32;;;1.45;;
55082;SDS011;40978;52.850;6.506;2023-04-24T12:07:21;7.35;;;1.50;;
55082;SDS011;40978;52.850;6.506;2023-04-24T12:09:48;6.53;;;1.08;;
55082;SDS011;40978;52.850;6.506;2023-04-24T12:12:20;7.18;;;1.80;;
55082;SDS011;40978;52.850;6.506;2023-04-24T12:14:55;6.57;;;1.65;;
55082;SDS011;40978;52.850;6.506;2023-04-24T12:17:26;11.15;;;1.90;;
55082;SDS011;40978;52.850;6.506;2023-04-24T12:19:59;6.95;;;1.77;;
55082;SDS011;40978;52.850;6.506;2023-04-24T12:22:27;6.65;;;1.77;;
55082;SDS011;40978;52.850;6.506;2023-04-24T12:24:57;4.85;;;1.00;;
55082;SDS011;40978;52.850;6.506;2023-04-24T12:27:24;4.28;;;0.80;;
55082;SDS011;40978;52.850;6.506;2023-04-24T12:29:55;5.70;;;0.93;;
55082;SDS011;40978;52.850;6.506;2023-04-24T12:32:22;4.68;;;0.90;;
55082;SDS011;40978;52.850;6.506;2023-04-24T12:34:49;5.30;;;0.52;;
55082;SDS011;40978;52.850;6.506;2023-04-24T12:37:16;3.85;;;0.73;;
55082;SDS011;40978;52.850;6.506;2023-04-24T12:40:01;1.77;;;0.40;;
55082;SDS011;40978;52.850;6.506;2023-04-24T12:42:32;5.43;;;0.50;;
55082;SDS011;40978;52.850;6.506;2023-04-24T12:45:05;1.48;;;0.52;;
55082;SDS011;40978;52.850;6.506;2023-04-24T12:47:32;2.15;;;0.60;;
55082;SDS011;40978;52.850;6.506;2023-04-24T12:49:59;5.53;;;0.70;;
55082;SDS011;40978;52.850;6.506;2023-04-24T12:52:26;4.32;;;0.70;;
55082;SDS011;40978;52.850;6.506;2023-04-24T12:54:52;5.00;;;0.68;;
55082;SDS011;40978;52.850;6.506;2023-04-24T12:57:20;4.47;;;1.38;;
55082;SDS011;40978;52.850;6.506;2023-04-24T12:59:46;4.65;;;0.60;;
55082;SDS011;40978;52.850;6.506;2023-04-24T13:02:11;6.60;;;0.75;;
55082;SDS011;40978;52.850;6.506;2023-04-24T13:04:37;6.00;;;0.70;;
55082;SDS011;40978;52.850;6.506;2023-04-24T13:07:03;4.75;;;0.52;;
55082;SDS011;40978;52.850;6.506;2023-04-24T13:09:30;5.53;;;0.73;;
55082;SDS011;40978;52.850;6.506;2023-04-24T13:11:56;8.20;;;1.17;;
55082;SDS011;40978;52.850;6.506;2023-04-24T13:14:22;5.90;;;0.70;;
55082;SDS011;40978;52.850;6.506;2023-04-24T13:16:48;7.25;;;0.73;;
55082;SDS011;40978;52.850;6.506;2023-04-24T13:19:14;4.50;;;0.55;;
55082;SDS011;40978;52.850;6.506;2023-04-24T13:21:40;3.95;;;0.55;;
55082;SDS011;40978;52.850;6.506;2023-04-24T13:24:06;4.93;;;0.98;;
55082;SDS011;40978;52.850;6.506;2023-04-24T13:26:33;3.63;;;0.57;;
55082;SDS011;40978;52.850;6.506;2023-04-24T13:28:58;4.65;;;0.65;;
55082;SDS011;40978;52.850;6.506;2023-04-24T13:31:24;4.22;;;0.85;;
55082;SDS011;40978;52.850;6.506;2023-04-24T13:33:50;4.68;;;0.82;;
55082;SDS011;40978;52.850;6.506;2023-04-24T13:36:16;3.53;;;0.85;;
55082;SDS011;40978;52.850;6.506;2023-04-24T13:38:43;4.43;;;0.80;;
55082;SDS011;40978;52.850;6.506;2023-04-24T13:41:09;2.70;;;0.70;;
55082;SDS011;40978;52.850;6.506;2023-04-24T13:43:35;6.43;;;0.80;;
55082;SDS011;40978;52.850;6.506;2023-04-24T13:46:01;5.32;;;0.60;;
55082;SDS011;40978;52.850;6.506;2023-04-24T13:48:28;5.50;;;0.88;;
55082;SDS011;40978;52.850;6.506;2023-04-24T13:50:54;5.88;;;1.17;;
55082;SDS011;40978;52.850;6.506;2023-04-24T13:53:20;4.28;;;1.20;;
55082;SDS011;40978;52.850;6.506;2023-04-24T13:55:46;6.13;;;0.90;;
55082;SDS011;40978;52.850;6.506;2023-04-24T13:58:11;11.40;;;1.23;;
55082;SDS011;40978;52.850;6.506;2023-04-24T14:00:37;6.63;;;1.20;;
55082;SDS011;40978;52.850;6.506;2023-04-24T14:03:03;4.35;;;1.17;;
55082;SDS011;40978;52.850;6.506;2023-04-24T14:05:29;9.45;;;1.60;;
55082;SDS011;40978;52.850;6.506;2023-04-24T14:07:54;5.55;;;0.90;;
55082;SDS011;40978;52.850;6.506;2023-04-24T14:10:20;6.93;;;1.20;;
55082;SDS011;40978;52.850;6.506;2023-04-24T14:12:46;8.48;;;1.65;;
55082;SDS011;40978;52.850;6.506;2023-04-24T14:15:12;11.88;;;1.70;;
55082;SDS011;40978;52.850;6.506;2023-04-24T14:17:38;8.23;;;1.48;;
55082;SDS011;40978;52.850;6.506;2023-04-24T14:20:04;8.77;;;1.25;;
55082;SDS011;40978;52.850;6.506;2023-04-24T14:22:32;6.65;;;1.58;;
55082;SDS011;40978;52.850;6.506;2023-04-24T14:24:58;10.00;;;1.80;;
55082;SDS011;40978;52.850;6.506;2023-04-24T14:27:24;9.43;;;1.70;;
55082;SDS011;40978;52.850;6.506;2023-04-24T14:29:51;8.25;;;1.30;;
55082;SDS011;40978;52.850;6.506;2023-04-24T14:32:17;7.78;;;1.48;;
55082;SDS011;40978;52.850;6.506;2023-04-24T14:34:43;9.15;;;1.60;;
55082;SDS011;40978;52.850;6.506;2023-04-24T14:37:09;12.80;;;2.03;;
55082;SDS011;40978;52.850;6.506;2023-04-24T14:39:34;13.73;;;2.28;;
55082;SDS011;40978;52.850;6.506;2023-04-24T14:42:00;12.73;;;1.92;;
55082;SDS011;40978;52.850;6.506;2023-04-24T14:44:26;15.40;;;2.58;;
55082;SDS011;40978;52.850;6.506;2023-04-24T14:46:52;13.68;;;2.17;;
55082;SDS011;40978;52.850;6.506;2023-04-24T14:49:18;12.25;;;1.80;;
55082;SDS011;40978;52.850;6.506;2023-04-24T14:51:44;11.40;;;2.30;;
55082;SDS011;40978;52.850;6.506;2023-04-24T14:54:09;8.40;;;2.00;;
55082;SDS011;40978;52.850;6.506;2023-04-24T14:56:35;8.40;;;1.90;;